Captain Sam — WDB5536 — position and weather

sailwx.info

Track history (hours):
 
Tides and Currents Weather Stations Pressure Air Temp Water Temp Dewpoint Dewpoint Depression Visibility Wind Speed Wind Dir Waves Ship Positions

Captain Sam

Owner: SMITH MARINE TOWING, MORGAN CITY, LA. More information available from US FCC via Universal Licensing System and Coast Guard Vessel Documentation Center.

Last reported at 2017-Oct-10 23:47 UTC. Time now 2017-Oct-19 16:17 UTC.
Position N 36°47' W 075°54'.
Warning: this ship's position is 8 days out of date.

; draft 4 m.

Type: Ship. MMSI: 366910710.

Date/timePositionNaut miles runAvg speedWind from/ knotsBaromVisibWave heightAir tempDewpointWater temp
2017-Oct-10 23:47N 36°47' W 075°54'4 4.8
2017-Oct-10 22:53N 36°51' W 075°56'2 5.0
2017-Oct-10 22:28N 36°53' W 075°57'2 5.3
2017-Oct-10 22:00N 36°55' W 075°58'3 5.5
2017-Oct-10 21:30N 36°57' W 076°01'3 5.1
2017-Oct-10 21:00N 36°58' W 076°04'14 3.1
2017-Oct-10 16:33N 36°53' W 076°20'1 3.6
2017-Oct-10 16:21N 36°52' W 076°20'2 3.8
2017-Oct-10 15:52N 36°51' W 076°18'2 3.3
2017-Oct-10 15:23N 36°49' W 076°17'1 3.2
2017-Oct-10 14:56N 36°48' W 076°17'0 0.2
2017-Oct-10 13:49N 36°48' W 076°17'0 0.0
2017-Oct-10 13:23N 36°48' W 076°17'0 0.0
2017-Oct-10 12:58N 36°48' W 076°17'0 0.0
2017-Oct-10 12:29N 36°48' W 076°17'0 0.0
2017-Oct-10 11:54N 36°48' W 076°17'0 0.0
2017-Oct-10 11:23N 36°48' W 076°17'0 0.0
2017-Oct-10 10:40N 36°48' W 076°17'0 0.0
2017-Oct-10 10:29N 36°48' W 076°17'0 0.0
2017-Oct-10 09:53N 36°48' W 076°17'0 0.0
2017-Oct-10 09:22N 36°48' W 076°17'0 0.0
2017-Oct-10 08:51N 36°48' W 076°17'0 0.0
2017-Oct-10 08:27N 36°48' W 076°17'0 0.0
2017-Oct-10 08:00N 36°48' W 076°17'0 0.0
2017-Oct-10 07:30N 36°48' W 076°17'0 0.0
2017-Oct-10 07:00N 36°48' W 076°17'0 0.0
2017-Oct-10 06:30N 36°48' W 076°17'0 0.0
2017-Oct-09 06:16N 36°48' W 076°17'0 0.0
2017-Oct-09 04:37N 36°48' W 076°17'0 0.0
2017-Oct-09 04:29N 36°48' W 076°17'0 0.0
2017-Oct-09 03:57N 36°48' W 076°17'0 0.0
2017-Oct-09 03:30N 36°48' W 076°17'0 0.0
2017-Oct-09 02:59N 36°48' W 076°17'0 0.0
2017-Oct-09 02:30N 36°48' W 076°17'0 0.0
2017-Oct-09 02:00N 36°48' W 076°17'0 0.0
2017-Oct-09 01:28N 36°48' W 076°17'0 0.0
2017-Oct-09 00:59N 36°48' W 076°17'0 0.0
2017-Oct-09 00:30N 36°48' W 076°17'0 0.0
2017-Oct-09 00:00N 36°48' W 076°17'0 0.0
2017-Oct-08 23:29N 36°48' W 076°17'0 0.0
2017-Oct-08 23:00N 36°48' W 076°17'0 0.0
2017-Oct-08 22:30N 36°48' W 076°17'0 0.0
2017-Oct-08 22:00N 36°48' W 076°17'0 0.0
2017-Oct-08 21:30N 36°48' W 076°17'0 0.0
2017-Oct-08 21:00N 36°48' W 076°17'0 0.0
2017-Oct-08 20:30N 36°48' W 076°17'0 0.0
2017-Oct-08 20:00N 36°48' W 076°17'0 0.0
2017-Oct-08 19:30N 36°48' W 076°17'0 0.0
2017-Oct-08 19:00N 36°48' W 076°17'0 0.0
2017-Oct-08 18:30N 36°48' W 076°17'0 0.0
2017-Oct-08 18:00N 36°48' W 076°17'0 0.0
2017-Oct-08 17:30N 36°48' W 076°17'0 0.0
2017-Oct-08 17:00N 36°48' W 076°17'0 0.0
2017-Oct-08 16:30N 36°48' W 076°17'0 0.0
2017-Oct-08 16:00N 36°48' W 076°17'0 0.0
2017-Oct-08 15:29N 36°48' W 076°17'0 0.0
2017-Oct-08 14:59N 36°48' W 076°17'0 0.0
2017-Oct-08 14:29N 36°48' W 076°17'0 0.0
2017-Oct-08 14:00N 36°48' W 076°17'0 0.0
2017-Oct-08 13:29N 36°48' W 076°17'0 0.0
2017-Oct-08 12:58N 36°48' W 076°17'0 0.0
2017-Oct-08 12:30N 36°48' W 076°17'0 0.0
2017-Oct-08 11:59N 36°48' W 076°17'0 0.0
2017-Oct-08 11:30N 36°48' W 076°17'0 0.0
2017-Oct-08 11:00N 36°48' W 076°17'0 0.0
2017-Oct-08 10:29N 36°48' W 076°17'0 0.0
2017-Oct-08 10:00N 36°48' W 076°17'0 0.0
2017-Oct-08 09:30N 36°48' W 076°17'0 0.0
2017-Oct-08 08:56N 36°48' W 076°17'0 0.0
2017-Oct-08 08:30N 36°48' W 076°17'0 0.0
2017-Oct-08 07:59N 36°48' W 076°17'0 0.0
2017-Oct-08 07:29N 36°48' W 076°17'0 0.0
2017-Oct-08 06:59N 36°48' W 076°17'0 0.0
2017-Oct-08 06:30N 36°48' W 076°17'0 0.0
2017-Oct-08 05:59N 36°48' W 076°17'0 0.0
2017-Oct-08 05:30N 36°48' W 076°17'0 0.0
2017-Oct-07 22:38N 36°48' W 076°17'0 0.0
2017-Oct-07 22:26N 36°48' W 076°17'0 0.0
2017-Oct-07 22:00N 36°48' W 076°17'0 0.0
2017-Oct-07 21:30N 36°48' W 076°17'0 0.0
2017-Oct-07 21:00N 36°48' W 076°17'0 0.0
2017-Oct-07 20:30N 36°48' W 076°17'0 0.0
2017-Oct-07 20:00N 36°48' W 076°17'0 0.0
2017-Oct-07 19:30N 36°48' W 076°17'0 0.0
2017-Oct-07 19:00N 36°48' W 076°17'0 0.0
2017-Oct-07 18:30N 36°48' W 076°17'0 0.0
2017-Oct-07 18:00N 36°48' W 076°17'0 0.0
2017-Oct-07 17:30N 36°48' W 076°17'0 0.0
2017-Oct-07 17:00N 36°48' W 076°17'0 0.0
2017-Oct-07 16:30N 36°48' W 076°17'0 0.0
2017-Oct-07 16:00N 36°48' W 076°17'0 0.0
2017-Oct-07 15:30N 36°48' W 076°17'0 0.0
2017-Oct-07 15:00N 36°48' W 076°17'0 0.0
2017-Oct-07 14:30N 36°48' W 076°17'0 0.0
2017-Oct-07 13:59N 36°48' W 076°17'0 0.0
2017-Oct-07 13:30N 36°48' W 076°17'0 0.0
2017-Oct-07 13:00N 36°48' W 076°17'0 0.0
2017-Oct-07 12:30N 36°48' W 076°17'0 0.0
2017-Oct-07 12:00N 36°48' W 076°17'0 0.0
2017-Oct-07 11:30N 36°48' W 076°17'0 0.0
2017-Oct-07 11:00N 36°48' W 076°17'0 0.0
2017-Oct-07 10:30N 36°48' W 076°17'0 0.0
2017-Oct-07 10:00N 36°48' W 076°17'0 0.0
2017-Oct-07 09:30N 36°48' W 076°17'0 0.0
2017-Oct-07 09:00N 36°48' W 076°17'0 0.0
2017-Oct-07 08:30N 36°48' W 076°17'0 0.0
2017-Oct-07 08:00N 36°48' W 076°17'0 0.0
2017-Oct-07 07:30N 36°48' W 076°17'0 0.0
2017-Oct-07 07:00N 36°48' W 076°17'0 0.0
2017-Oct-07 06:30N 36°48' W 076°17'0 0.0
2017-Oct-07 06:00N 36°48' W 076°17'0 0.0
2017-Oct-07 05:30N 36°48' W 076°17'0 0.0
2017-Oct-07 05:00N 36°48' W 076°17'0 0.0
2017-Oct-07 04:30N 36°48' W 076°17'0 0.0
2017-Oct-07 04:00N 36°48' W 076°17'0 0.0
2017-Oct-07 03:30N 36°48' W 076°17'0 0.0
2017-Oct-07 03:00N 36°48' W 076°17'0 0.0
2017-Oct-07 02:30N 36°48' W 076°17'0 0.0
2017-Oct-07 02:00N 36°48' W 076°17'0 0.0
2017-Oct-07 01:30N 36°48' W 076°17'0 0.0
2017-Oct-07 01:00N 36°48' W 076°17'0 0.0
2017-Oct-07 00:30N 36°48' W 076°17'0 0.0
2017-Oct-07 00:00N 36°48' W 076°17'0 0.0
2017-Oct-06 23:30N 36°48' W 076°17'0 0.0
2017-Oct-06 23:00N 36°48' W 076°17'0 0.0
2017-Oct-06 22:30N 36°48' W 076°17'0 0.0
2017-Oct-06 22:00N 36°48' W 076°17'0 0.0
2017-Oct-06 21:30N 36°48' W 076°17'0 0.0
2017-Oct-06 21:00N 36°48' W 076°17'0 0.0
2017-Oct-06 20:30N 36°48' W 076°17'0 0.0
2017-Oct-06 20:00N 36°48' W 076°17'0 0.0
2017-Oct-06 19:30N 36°48' W 076°17'0 0.0
2017-Oct-06 19:00N 36°48' W 076°17'0 0.0
2017-Oct-06 18:30N 36°48' W 076°17'0 0.0
2017-Oct-06 18:00N 36°48' W 076°17'0 0.0
2017-Oct-06 17:30N 36°48' W 076°17'0 0.0
2017-Oct-06 17:00N 36°48' W 076°17'0 0.0
2017-Oct-06 16:30N 36°48' W 076°17'0 0.0
2017-Oct-06 16:00N 36°48' W 076°17'0 0.0
2017-Oct-06 15:30N 36°48' W 076°17'0 0.0
2017-Oct-06 15:00N 36°48' W 076°17'0 0.0
2017-Oct-06 14:30N 36°48' W 076°17'0 0.0
2017-Oct-06 14:00N 36°48' W 076°17'0 0.0
2017-Oct-06 13:30N 36°48' W 076°17'0 0.0
2017-Oct-06 13:00N 36°48' W 076°17'0 0.0
2017-Oct-06 12:30N 36°48' W 076°17'0 0.0
2017-Oct-06 12:01N 36°48' W 076°17'0 0.0
2017-Oct-06 11:30N 36°48' W 076°17'0 0.0
2017-Oct-06 11:01N 36°48' W 076°17'0 0.0
2017-Oct-06 10:31N 36°48' W 076°17'0 0.0
2017-Oct-06 10:01N 36°48' W 076°17'0 0.0
2017-Oct-06 09:30N 36°48' W 076°17'0 0.0
2017-Oct-06 09:00N 36°48' W 076°17'0 0.0
2017-Oct-06 08:30N 36°48' W 076°17'0 0.0
2017-Oct-06 08:00N 36°48' W 076°17'0 0.0
2017-Oct-06 07:30N 36°48' W 076°17'0 0.0
2017-Oct-06 07:00N 36°48' W 076°17'0 0.0
2017-Oct-06 06:30N 36°48' W 076°17'0 0.0
2017-Oct-06 06:00N 36°48' W 076°17'0 0.0
2017-Oct-06 05:30N 36°48' W 076°17'0 0.0
2017-Oct-06 05:00N 36°48' W 076°17'0 0.0
2017-Oct-06 04:30N 36°48' W 076°17'0 0.0
2017-Oct-06 04:00N 36°48' W 076°17'0 0.0
2017-Oct-06 03:30N 36°48' W 076°17'0 0.0
2017-Oct-06 03:00N 36°48' W 076°17'0 0.0
2017-Oct-06 02:30N 36°48' W 076°17'0 0.0
2017-Oct-06 02:01N 36°48' W 076°17'0 0.0
2017-Oct-06 01:30N 36°48' W 076°17'0 0.0
2017-Oct-06 01:00N 36°48' W 076°17'0 0.0
2017-Oct-06 00:30N 36°48' W 076°17'0 0.0
2017-Oct-06 00:00N 36°48' W 076°17'0 0.0
2017-Oct-05 23:30N 36°48' W 076°17'0 0.0
2017-Oct-05 23:00N 36°48' W 076°17'0 0.0
2017-Oct-05 22:30N 36°48' W 076°17'0 0.0
2017-Oct-05 22:00N 36°48' W 076°17'0 0.0
2017-Oct-05 21:30N 36°48' W 076°17'0 0.0
2017-Oct-05 21:00N 36°48' W 076°17'0 0.0
2017-Oct-05 20:30N 36°48' W 076°17'0 0.0
2017-Oct-05 20:00N 36°48' W 076°17'0 0.0
2017-Oct-05 19:30N 36°48' W 076°17'0 0.0
2017-Oct-05 19:00N 36°48' W 076°17'0 0.0
2017-Oct-05 18:30N 36°48' W 076°17'0 0.0
2017-Oct-05 18:00N 36°48' W 076°17'0 0.0
2017-Oct-05 17:30N 36°48' W 076°17'0 0.0
2017-Oct-05 17:00N 36°48' W 076°17'0 0.0
2017-Oct-05 15:30N 36°48' W 076°17'0 0.0
2017-Oct-05 15:00N 36°48' W 076°17'0 0.0
2017-Oct-05 14:30N 36°48' W 076°17'0 0.0
2017-Oct-05 14:00N 36°48' W 076°17'0 0.0
2017-Oct-05 13:31N 36°48' W 076°17'0 0.0
2017-Oct-05 13:01N 36°48' W 076°17'0 0.0
2017-Oct-05 12:30N 36°48' W 076°17'0 0.0
2017-Oct-05 12:00N 36°48' W 076°17'0 0.0
2017-Oct-05 11:31N 36°48' W 076°17'0 0.0
2017-Oct-05 11:00N 36°48' W 076°17'0 0.0
2017-Oct-05 10:30N 36°48' W 076°17'0 0.0
2017-Oct-05 10:00N 36°48' W 076°17'0 0.0
2017-Oct-05 09:30N 36°48' W 076°17'0 0.0
2017-Oct-05 09:00N 36°48' W 076°17'0 0.0
2017-Oct-05 08:30N 36°48' W 076°17'0 0.0
2017-Oct-05 08:01N 36°48' W 076°17'0 0.0
2017-Oct-05 07:31N 36°48' W 076°17'0 0.0
2017-Oct-05 07:00N 36°48' W 076°17'0 0.0
2017-Oct-05 06:30N 36°48' W 076°17'0 0.0
2017-Oct-05 06:01N 36°48' W 076°17'0 0.0
2017-Oct-05 05:30N 36°48' W 076°17'0 0.0
2017-Oct-05 05:00N 36°48' W 076°17'0 0.0
2017-Oct-05 04:30N 36°48' W 076°17'0 0.0
2017-Oct-05 04:00N 36°48' W 076°17'0 0.0
2017-Oct-05 03:30N 36°48' W 076°17'0 0.0
2017-Oct-05 03:01N 36°48' W 076°17'0 0.0
2017-Oct-05 02:31N 36°48' W 076°17'0 0.0
2017-Oct-05 02:01N 36°48' W 076°17'0 0.0
2017-Oct-05 01:30N 36°48' W 076°17'0 0.1
2017-Oct-05 01:00N 36°48' W 076°17'0 0.1
2017-Oct-05 00:30N 36°48' W 076°17'0 0.0
2017-Oct-05 00:01N 36°48' W 076°17'0 0.0
2017-Oct-04 23:30N 36°48' W 076°17'0 0.0
2017-Oct-04 23:01N 36°48' W 076°17'0 0.0
2017-Oct-04 22:31N 36°48' W 076°17'0 0.0
2017-Oct-04 22:00N 36°48' W 076°17'0 0.0
2017-Oct-04 21:30N 36°48' W 076°17'0 0.0
2017-Oct-04 21:01N 36°48' W 076°17'0 0.0
2017-Oct-04 20:30N 36°48' W 076°17'0 0.0
2017-Oct-04 20:00N 36°48' W 076°17'0 0.0
2017-Oct-04 19:30N 36°48' W 076°17'0 0.0
2017-Oct-04 19:00N 36°48' W 076°17'0 0.0
2017-Oct-04 18:30N 36°48' W 076°17'0 0.0
2017-Oct-04 18:00N 36°48' W 076°17'0 0.0
2017-Oct-04 17:30N 36°48' W 076°17'0 0.0
2017-Oct-04 17:00N 36°48' W 076°17'0 0.0
2017-Oct-04 16:30N 36°48' W 076°17'0 0.0
2017-Oct-04 16:00N 36°48' W 076°17'0 0.0
2017-Oct-04 15:30N 36°48' W 076°17'0 0.0
2017-Oct-04 15:01N 36°48' W 076°17'0 0.0
2017-Oct-04 14:31N 36°48' W 076°17'0 0.0
2017-Oct-04 14:00N 36°48' W 076°17'0 0.0
2017-Oct-04 13:31N 36°48' W 076°17'0 0.0
2017-Oct-04 13:00N 36°48' W 076°17'0 0.0
2017-Oct-04 12:30N 36°48' W 076°17'0 0.0
2017-Oct-04 12:00N 36°48' W 076°17'0 0.0
2017-Oct-04 11:30N 36°48' W 076°17'0 0.0
2017-Oct-04 11:00N 36°48' W 076°17'0 0.0
2017-Oct-04 10:30N 36°48' W 076°17'0 0.0
2017-Oct-04 10:00N 36°48' W 076°17'0 0.0
2017-Oct-04 09:30N 36°48' W 076°17'0 0.0
2017-Oct-04 09:01N 36°48' W 076°17'0 0.0
2017-Oct-04 08:30N 36°48' W 076°17'0 0.0
2017-Oct-04 08:01N 36°48' W 076°17'0 0.0
2017-Oct-04 07:30N 36°48' W 076°17'0 0.0
2017-Oct-04 07:00N 36°48' W 076°17'0 0.0
2017-Oct-04 06:30N 36°48' W 076°17'0 0.0
2017-Oct-04 06:00N 36°48' W 076°17'0 0.0
2017-Oct-04 05:30N 36°48' W 076°17'0 0.0
2017-Oct-04 05:00N 36°48' W 076°17'0 0.0
2017-Oct-04 04:30N 36°48' W 076°17'0 0.0
2017-Oct-04 04:01N 36°48' W 076°17'0 0.0
2017-Oct-04 03:30N 36°48' W 076°17'0 0.0
2017-Oct-04 03:00N 36°48' W 076°17'0 0.0
2017-Oct-04 02:31N 36°48' W 076°17'0 0.0
2017-Oct-04 02:00N 36°48' W 076°17'0 0.0
2017-Oct-04 01:30N 36°48' W 076°17'0 0.0
2017-Oct-04 01:00N 36°48' W 076°17'0 0.0
2017-Oct-04 00:30N 36°48' W 076°17'0 0.0
2017-Oct-04 00:01N 36°48' W 076°17'0 0.0
2017-Oct-03 23:30N 36°48' W 076°17'0 0.0
2017-Oct-03 23:00N 36°48' W 076°17'0 0.0
2017-Oct-03 22:31N 36°48' W 076°17'0 0.0
2017-Oct-03 22:00N 36°48' W 076°17'0 0.0
2017-Oct-03 21:30N 36°48' W 076°17'0 0.0
2017-Oct-03 21:00N 36°48' W 076°17'0 0.0
2017-Oct-03 20:30N 36°48' W 076°17'0 0.0
2017-Oct-02 22:39N 36°48' W 076°17'0 0.0
2017-Oct-02 22:30N 36°48' W 076°17'0 0.0
2017-Oct-02 22:00N 36°48' W 076°17'0 0.0
2017-Oct-02 21:26N 36°48' W 076°17'0 0.0
2017-Oct-02 21:00N 36°48' W 076°17'0 0.0
2017-Oct-02 20:31N 36°48' W 076°17'0 0.0
2017-Oct-02 20:01N 36°48' W 076°17'0 0.0
2017-Oct-02 19:30N 36°48' W 076°17'0 0.0
2017-Oct-02 19:00N 36°48' W 076°17'0 0.0
2017-Oct-02 18:30N 36°48' W 076°17'0 0.0
2017-Oct-02 18:00N 36°48' W 076°17'0 0.0
2017-Oct-02 17:30N 36°48' W 076°17'0 0.0
2017-Oct-02 17:00N 36°48' W 076°17'0 0.0
2017-Oct-02 16:30N 36°48' W 076°17'0 0.0
2017-Oct-02 16:00N 36°48' W 076°17'0 0.0
2017-Oct-02 15:30N 36°48' W 076°17'0 0.0
2017-Oct-02 15:00N 36°48' W 076°17'0 0.0
2017-Oct-02 14:30N 36°48' W 076°17'0 0.0
2017-Oct-02 14:00N 36°48' W 076°17'0 0.0
2017-Oct-02 13:30N 36°48' W 076°17'0 0.0
2017-Oct-02 13:00N 36°48' W 076°17'0 0.0
2017-Oct-02 12:30N 36°48' W 076°17'0 0.0
2017-Oct-02 12:00N 36°48' W 076°17'0 0.0
2017-Oct-02 11:30N 36°48' W 076°17'0 0.0
2017-Oct-02 11:00N 36°48' W 076°17'0 0.0
2017-Oct-02 10:30N 36°48' W 076°17'0 0.0
2017-Oct-02 10:00N 36°48' W 076°17'0 0.0
2017-Oct-02 09:30N 36°48' W 076°17'0 0.0
2017-Oct-02 09:00N 36°48' W 076°17'0 0.0
2017-Oct-02 08:30N 36°48' W 076°17'0 0.0
2017-Oct-02 08:00N 36°48' W 076°17'0 0.0
2017-Oct-02 07:30N 36°48' W 076°17'0 0.0
2017-Oct-02 07:00N 36°48' W 076°17'0 0.0
2017-Oct-02 06:30N 36°48' W 076°17'0 0.0
2017-Oct-02 06:00N 36°48' W 076°17'0 0.0
2017-Oct-02 05:30N 36°48' W 076°17'0 0.0
2017-Oct-02 05:00N 36°48' W 076°17'0 0.0
2017-Oct-02 04:30N 36°48' W 076°17'0 0.0
2017-Oct-02 04:00N 36°48' W 076°17'0 0.0
2017-Oct-02 03:30N 36°48' W 076°17'0 0.0
2017-Oct-02 03:00N 36°48' W 076°17'0 0.0
2017-Oct-02 02:30N 36°48' W 076°17'0 0.0
2017-Oct-02 02:00N 36°48' W 076°17'0 0.0
2017-Oct-02 01:30N 36°48' W 076°17'0 0.0
2017-Oct-02 01:00N 36°48' W 076°17'0 0.0
2017-Oct-02 00:30N 36°48' W 076°17'0 0.0
2017-Oct-02 00:00N 36°48' W 076°17'0 0.0
2017-Oct-01 23:30N 36°48' W 076°17'0 0.0
2017-Oct-01 23:00N 36°48' W 076°17'0 0.0
2017-Oct-01 22:30N 36°48' W 076°17'0 0.0
2017-Oct-01 22:00N 36°48' W 076°17'0 0.0
2017-Oct-01 21:30N 36°48' W 076°17'0 0.0
2017-Oct-01 21:00N 36°48' W 076°17'0 0.0
2017-Oct-01 20:30N 36°48' W 076°17'0 0.0
2017-Oct-01 20:00N 36°48' W 076°17'0 0.0
2017-Oct-01 19:30N 36°48' W 076°17'0 0.0
2017-Oct-01 19:00N 36°48' W 076°17'0 0.0
2017-Oct-01 18:30N 36°48' W 076°17'0 0.0
2017-Oct-01 18:00N 36°48' W 076°17'0 0.0
2017-Oct-01 17:30N 36°48' W 076°17'0 0.0
2017-Oct-01 17:00N 36°48' W 076°17'0 0.0
2017-Oct-01 16:30N 36°48' W 076°17'0 0.0
2017-Oct-01 16:00N 36°48' W 076°17'0 0.0
2017-Oct-01 15:30N 36°48' W 076°17'0 0.0
2017-Oct-01 15:00N 36°48' W 076°17'0 0.0
2017-Oct-01 14:30N 36°48' W 076°17'0 0.0
2017-Oct-01 14:00N 36°48' W 076°17'0 0.0
2017-Oct-01 13:30N 36°48' W 076°17'1 2.7
2017-Oct-01 13:00N 36°49' W 076°17'3 5.1
2017-Oct-01 12:30N 36°51' W 076°19'  
Track history (hours):
 
Tides and Currents Weather Stations Pressure Air Temp Water Temp Dewpoint Dewpoint Depression Visibility Wind Speed Wind Dir Waves Ship Positions

Captain Sam

Owner: SMITH MARINE TOWING, MORGAN CITY, LA. More information available from US FCC via Universal Licensing System and Coast Guard Vessel Documentation Center.

Last reported at 2017-Oct-10 23:47 UTC. Time now 2017-Oct-19 16:17 UTC.
Position N 36°47' W 075°54'.
Warning: this ship's position is 8 days out of date.

; draft 4 m.

Type: Ship. MMSI: 366910710.

Date/timePositionNaut miles runAvg speedWind from/ knotsBaromVisibWave heightAir tempDewpointWater temp
2017-Oct-10 23:47N 36°47' W 075°54'4 4.8
2017-Oct-10 22:53N 36°51' W 075°56'2 5.0
2017-Oct-10 22:28N 36°53' W 075°57'2 5.3
2017-Oct-10 22:00N 36°55' W 075°58'3 5.5
2017-Oct-10 21:30N 36°57' W 076°01'3 5.1
2017-Oct-10 21:00N 36°58' W 076°04'14 3.1
2017-Oct-10 16:33N 36°53' W 076°20'1 3.6
2017-Oct-10 16:21N 36°52' W 076°20'2 3.8
2017-Oct-10 15:52N 36°51' W 076°18'2 3.3
2017-Oct-10 15:23N 36°49' W 076°17'1 3.2
2017-Oct-10 14:56N 36°48' W 076°17'0 0.2
2017-Oct-10 13:49N 36°48' W 076°17'0 0.0
2017-Oct-10 13:23N 36°48' W 076°17'0 0.0
2017-Oct-10 12:58N 36°48' W 076°17'0 0.0
2017-Oct-10 12:29N 36°48' W 076°17'0 0.0
2017-Oct-10 11:54N 36°48' W 076°17'0 0.0
2017-Oct-10 11:23N 36°48' W 076°17'0 0.0
2017-Oct-10 10:40N 36°48' W 076°17'0 0.0
2017-Oct-10 10:29N 36°48' W 076°17'0 0.0
2017-Oct-10 09:53N 36°48' W 076°17'0 0.0
2017-Oct-10 09:22N 36°48' W 076°17'0 0.0
2017-Oct-10 08:51N 36°48' W 076°17'0 0.0
2017-Oct-10 08:27N 36°48' W 076°17'0 0.0
2017-Oct-10 08:00N 36°48' W 076°17'0 0.0
2017-Oct-10 07:30N 36°48' W 076°17'0 0.0
2017-Oct-10 07:00N 36°48' W 076°17'0 0.0
2017-Oct-10 06:30N 36°48' W 076°17'0 0.0
2017-Oct-09 06:16N 36°48' W 076°17'0 0.0
2017-Oct-09 04:37N 36°48' W 076°17'0 0.0
2017-Oct-09 04:29N 36°48' W 076°17'0 0.0
2017-Oct-09 03:57N 36°48' W 076°17'0 0.0
2017-Oct-09 03:30N 36°48' W 076°17'0 0.0
2017-Oct-09 02:59N 36°48' W 076°17'0 0.0
2017-Oct-09 02:30N 36°48' W 076°17'0 0.0
2017-Oct-09 02:00N 36°48' W 076°17'0 0.0
2017-Oct-09 01:28N 36°48' W 076°17'0 0.0
2017-Oct-09 00:59N 36°48' W 076°17'0 0.0
2017-Oct-09 00:30N 36°48' W 076°17'0 0.0
2017-Oct-09 00:00N 36°48' W 076°17'0 0.0
2017-Oct-08 23:29N 36°48' W 076°17'0 0.0
2017-Oct-08 23:00N 36°48' W 076°17'0 0.0
2017-Oct-08 22:30N 36°48' W 076°17'0 0.0
2017-Oct-08 22:00N 36°48' W 076°17'0 0.0
2017-Oct-08 21:30N 36°48' W 076°17'0 0.0
2017-Oct-08 21:00N 36°48' W 076°17'0 0.0
2017-Oct-08 20:30N 36°48' W 076°17'0 0.0
2017-Oct-08 20:00N 36°48' W 076°17'0 0.0
2017-Oct-08 19:30N 36°48' W 076°17'0 0.0
2017-Oct-08 19:00N 36°48' W 076°17'0 0.0
2017-Oct-08 18:30N 36°48' W 076°17'0 0.0
2017-Oct-08 18:00N 36°48' W 076°17'0 0.0
2017-Oct-08 17:30N 36°48' W 076°17'0 0.0
2017-Oct-08 17:00N 36°48' W 076°17'0 0.0
2017-Oct-08 16:30N 36°48' W 076°17'0 0.0
2017-Oct-08 16:00N 36°48' W 076°17'0 0.0
2017-Oct-08 15:29N 36°48' W 076°17'0 0.0
2017-Oct-08 14:59N 36°48' W 076°17'0 0.0
2017-Oct-08 14:29N 36°48' W 076°17'0 0.0
2017-Oct-08 14:00N 36°48' W 076°17'0 0.0
2017-Oct-08 13:29N 36°48' W 076°17'0 0.0
2017-Oct-08 12:58N 36°48' W 076°17'0 0.0
2017-Oct-08 12:30N 36°48' W 076°17'0 0.0
2017-Oct-08 11:59N 36°48' W 076°17'0 0.0
2017-Oct-08 11:30N 36°48' W 076°17'0 0.0
2017-Oct-08 11:00N 36°48' W 076°17'0 0.0
2017-Oct-08 10:29N 36°48' W 076°17'0 0.0
2017-Oct-08 10:00N 36°48' W 076°17'0 0.0
2017-Oct-08 09:30N 36°48' W 076°17'0 0.0
2017-Oct-08 08:56N 36°48' W 076°17'0 0.0
2017-Oct-08 08:30N 36°48' W 076°17'0 0.0
2017-Oct-08 07:59N 36°48' W 076°17'0 0.0
2017-Oct-08 07:29N 36°48' W 076°17'0 0.0
2017-Oct-08 06:59N 36°48' W 076°17'0 0.0
2017-Oct-08 06:30N 36°48' W 076°17'0 0.0
2017-Oct-08 05:59N 36°48' W 076°17'0 0.0
2017-Oct-08 05:30N 36°48' W 076°17'0 0.0
2017-Oct-07 22:38N 36°48' W 076°17'0 0.0
2017-Oct-07 22:26N 36°48' W 076°17'0 0.0
2017-Oct-07 22:00N 36°48' W 076°17'0 0.0
2017-Oct-07 21:30N 36°48' W 076°17'0 0.0
2017-Oct-07 21:00N 36°48' W 076°17'0 0.0
2017-Oct-07 20:30N 36°48' W 076°17'0 0.0
2017-Oct-07 20:00N 36°48' W 076°17'0 0.0
2017-Oct-07 19:30N 36°48' W 076°17'0 0.0
2017-Oct-07 19:00N 36°48' W 076°17'0 0.0
2017-Oct-07 18:30N 36°48' W 076°17'0 0.0
2017-Oct-07 18:00N 36°48' W 076°17'0 0.0
2017-Oct-07 17:30N 36°48' W 076°17'0 0.0
2017-Oct-07 17:00N 36°48' W 076°17'0 0.0
2017-Oct-07 16:30N 36°48' W 076°17'0 0.0
2017-Oct-07 16:00N 36°48' W 076°17'0 0.0
2017-Oct-07 15:30N 36°48' W 076°17'0 0.0
2017-Oct-07 15:00N 36°48' W 076°17'0 0.0
2017-Oct-07 14:30N 36°48' W 076°17'0 0.0
2017-Oct-07 13:59N 36°48' W 076°17'0 0.0
2017-Oct-07 13:30N 36°48' W 076°17'0 0.0
2017-Oct-07 13:00N 36°48' W 076°17'0 0.0
2017-Oct-07 12:30N 36°48' W 076°17'0 0.0
2017-Oct-07 12:00N 36°48' W 076°17'0 0.0
2017-Oct-07 11:30N 36°48' W 076°17'0 0.0
2017-Oct-07 11:00N 36°48' W 076°17'0 0.0
2017-Oct-07 10:30N 36°48' W 076°17'0 0.0
2017-Oct-07 10:00N 36°48' W 076°17'0 0.0
2017-Oct-07 09:30N 36°48' W 076°17'0 0.0
2017-Oct-07 09:00N 36°48' W 076°17'0 0.0
2017-Oct-07 08:30N 36°48' W 076°17'0 0.0
2017-Oct-07 08:00N 36°48' W 076°17'0 0.0
2017-Oct-07 07:30N 36°48' W 076°17'0 0.0
2017-Oct-07 07:00N 36°48' W 076°17'0 0.0
2017-Oct-07 06:30N 36°48' W 076°17'0 0.0
2017-Oct-07 06:00N 36°48' W 076°17'0 0.0
2017-Oct-07 05:30N 36°48' W 076°17'0 0.0
2017-Oct-07 05:00N 36°48' W 076°17'0 0.0
2017-Oct-07 04:30N 36°48' W 076°17'0 0.0
2017-Oct-07 04:00N 36°48' W 076°17'0 0.0
2017-Oct-07 03:30N 36°48' W 076°17'0 0.0
2017-Oct-07 03:00N 36°48' W 076°17'0 0.0
2017-Oct-07 02:30N 36°48' W 076°17'0 0.0
2017-Oct-07 02:00N 36°48' W 076°17'0 0.0
2017-Oct-07 01:30N 36°48' W 076°17'0 0.0
2017-Oct-07 01:00N 36°48' W 076°17'0 0.0
2017-Oct-07 00:30N 36°48' W 076°17'0 0.0
2017-Oct-07 00:00N 36°48' W 076°17'0 0.0
2017-Oct-06 23:30N 36°48' W 076°17'0 0.0
2017-Oct-06 23:00N 36°48' W 076°17'0 0.0
2017-Oct-06 22:30N 36°48' W 076°17'0 0.0
2017-Oct-06 22:00N 36°48' W 076°17'0 0.0
2017-Oct-06 21:30N 36°48' W 076°17'0 0.0
2017-Oct-06 21:00N 36°48' W 076°17'0 0.0
2017-Oct-06 20:30N 36°48' W 076°17'0 0.0
2017-Oct-06 20:00N 36°48' W 076°17'0 0.0
2017-Oct-06 19:30N 36°48' W 076°17'0 0.0
2017-Oct-06 19:00N 36°48' W 076°17'0 0.0
2017-Oct-06 18:30N 36°48' W 076°17'0 0.0
2017-Oct-06 18:00N 36°48' W 076°17'0 0.0
2017-Oct-06 17:30N 36°48' W 076°17'0 0.0
2017-Oct-06 17:00N 36°48' W 076°17'0 0.0
2017-Oct-06 16:30N 36°48' W 076°17'0 0.0
2017-Oct-06 16:00N 36°48' W 076°17'0 0.0
2017-Oct-06 15:30N 36°48' W 076°17'0 0.0
2017-Oct-06 15:00N 36°48' W 076°17'0 0.0
2017-Oct-06 14:30N 36°48' W 076°17'0 0.0
2017-Oct-06 14:00N 36°48' W 076°17'0 0.0
2017-Oct-06 13:30N 36°48' W 076°17'0 0.0
2017-Oct-06 13:00N 36°48' W 076°17'0 0.0
2017-Oct-06 12:30N 36°48' W 076°17'0 0.0
2017-Oct-06 12:01N 36°48' W 076°17'0 0.0
2017-Oct-06 11:30N 36°48' W 076°17'0 0.0
2017-Oct-06 11:01N 36°48' W 076°17'0 0.0
2017-Oct-06 10:31N 36°48' W 076°17'0 0.0
2017-Oct-06 10:01N 36°48' W 076°17'0 0.0
2017-Oct-06 09:30N 36°48' W 076°17'0 0.0
2017-Oct-06 09:00N 36°48' W 076°17'0 0.0
2017-Oct-06 08:30N 36°48' W 076°17'0 0.0
2017-Oct-06 08:00N 36°48' W 076°17'0 0.0
2017-Oct-06 07:30N 36°48' W 076°17'0 0.0
2017-Oct-06 07:00N 36°48' W 076°17'0 0.0
2017-Oct-06 06:30N 36°48' W 076°17'0 0.0
2017-Oct-06 06:00N 36°48' W 076°17'0 0.0
2017-Oct-06 05:30N 36°48' W 076°17'0 0.0
2017-Oct-06 05:00N 36°48' W 076°17'0 0.0
2017-Oct-06 04:30N 36°48' W 076°17'0 0.0
2017-Oct-06 04:00N 36°48' W 076°17'0 0.0
2017-Oct-06 03:30N 36°48' W 076°17'0 0.0
2017-Oct-06 03:00N 36°48' W 076°17'0 0.0
2017-Oct-06 02:30N 36°48' W 076°17'0 0.0
2017-Oct-06 02:01N 36°48' W 076°17'0 0.0
2017-Oct-06 01:30N 36°48' W 076°17'0 0.0
2017-Oct-06 01:00N 36°48' W 076°17'0 0.0
2017-Oct-06 00:30N 36°48' W 076°17'0 0.0
2017-Oct-06 00:00N 36°48' W 076°17'0 0.0
2017-Oct-05 23:30N 36°48' W 076°17'0 0.0
2017-Oct-05 23:00N 36°48' W 076°17'0 0.0
2017-Oct-05 22:30N 36°48' W 076°17'0 0.0
2017-Oct-05 22:00N 36°48' W 076°17'0 0.0
2017-Oct-05 21:30N 36°48' W 076°17'0 0.0
2017-Oct-05 21:00N 36°48' W 076°17'0 0.0
2017-Oct-05 20:30N 36°48' W 076°17'0 0.0
2017-Oct-05 20:00N 36°48' W 076°17'0 0.0
2017-Oct-05 19:30N 36°48' W 076°17'0 0.0
2017-Oct-05 19:00N 36°48' W 076°17'0 0.0
2017-Oct-05 18:30N 36°48' W 076°17'0 0.0
2017-Oct-05 18:00N 36°48' W 076°17'0 0.0
2017-Oct-05 17:30N 36°48' W 076°17'0 0.0
2017-Oct-05 17:00N 36°48' W 076°17'0 0.0
2017-Oct-05 15:30N 36°48' W 076°17'0 0.0
2017-Oct-05 15:00N 36°48' W 076°17'0 0.0
2017-Oct-05 14:30N 36°48' W 076°17'0 0.0
2017-Oct-05 14:00N 36°48' W 076°17'0 0.0
2017-Oct-05 13:31N 36°48' W 076°17'0 0.0
2017-Oct-05 13:01N 36°48' W 076°17'0 0.0
2017-Oct-05 12:30N 36°48' W 076°17'0 0.0
2017-Oct-05 12:00N 36°48' W 076°17'0 0.0
2017-Oct-05 11:31N 36°48' W 076°17'0 0.0
2017-Oct-05 11:00N 36°48' W 076°17'0 0.0
2017-Oct-05 10:30N 36°48' W 076°17'0 0.0
2017-Oct-05 10:00N 36°48' W 076°17'0 0.0
2017-Oct-05 09:30N 36°48' W 076°17'0 0.0
2017-Oct-05 09:00N 36°48' W 076°17'0 0.0
2017-Oct-05 08:30N 36°48' W 076°17'0 0.0
2017-Oct-05 08:01N 36°48' W 076°17'0 0.0
2017-Oct-05 07:31N 36°48' W 076°17'0 0.0
2017-Oct-05 07:00N 36°48' W 076°17'0 0.0
2017-Oct-05 06:30N 36°48' W 076°17'0 0.0
2017-Oct-05 06:01N 36°48' W 076°17'0 0.0
2017-Oct-05 05:30N 36°48' W 076°17'0 0.0
2017-Oct-05 05:00N 36°48' W 076°17'0 0.0
2017-Oct-05 04:30N 36°48' W 076°17'0 0.0
2017-Oct-05 04:00N 36°48' W 076°17'0 0.0
2017-Oct-05 03:30N 36°48' W 076°17'0 0.0
2017-Oct-05 03:01N 36°48' W 076°17'0 0.0
2017-Oct-05 02:31N 36°48' W 076°17'0 0.0
2017-Oct-05 02:01N 36°48' W 076°17'0 0.0
2017-Oct-05 01:30N 36°48' W 076°17'0 0.1
2017-Oct-05 01:00N 36°48' W 076°17'0 0.1
2017-Oct-05 00:30N 36°48' W 076°17'0 0.0
2017-Oct-05 00:01N 36°48' W 076°17'0 0.0
2017-Oct-04 23:30N 36°48' W 076°17'0 0.0
2017-Oct-04 23:01N 36°48' W 076°17'0 0.0
2017-Oct-04 22:31N 36°48' W 076°17'0 0.0
2017-Oct-04 22:00N 36°48' W 076°17'0 0.0
2017-Oct-04 21:30N 36°48' W 076°17'0 0.0
2017-Oct-04 21:01N 36°48' W 076°17'0 0.0
2017-Oct-04 20:30N 36°48' W 076°17'0 0.0
2017-Oct-04 20:00N 36°48' W 076°17'0 0.0
2017-Oct-04 19:30N 36°48' W 076°17'0 0.0
2017-Oct-04 19:00N 36°48' W 076°17'0 0.0
2017-Oct-04 18:30N 36°48' W 076°17'0 0.0
2017-Oct-04 18:00N 36°48' W 076°17'0 0.0
2017-Oct-04 17:30N 36°48' W 076°17'0 0.0
2017-Oct-04 17:00N 36°48' W 076°17'0 0.0
2017-Oct-04 16:30N 36°48' W 076°17'0 0.0
2017-Oct-04 16:00N 36°48' W 076°17'0 0.0
2017-Oct-04 15:30N 36°48' W 076°17'0 0.0
2017-Oct-04 15:01N 36°48' W 076°17'0 0.0
2017-Oct-04 14:31N 36°48' W 076°17'0 0.0
2017-Oct-04 14:00N 36°48' W 076°17'0 0.0
2017-Oct-04 13:31N 36°48' W 076°17'0 0.0
2017-Oct-04 13:00N 36°48' W 076°17'0 0.0
2017-Oct-04 12:30N 36°48' W 076°17'0 0.0
2017-Oct-04 12:00N 36°48' W 076°17'0 0.0
2017-Oct-04 11:30N 36°48' W 076°17'0 0.0
2017-Oct-04 11:00N 36°48' W 076°17'0 0.0
2017-Oct-04 10:30N 36°48' W 076°17'0 0.0
2017-Oct-04 10:00N 36°48' W 076°17'0 0.0
2017-Oct-04 09:30N 36°48' W 076°17'0 0.0
2017-Oct-04 09:01N 36°48' W 076°17'0 0.0
2017-Oct-04 08:30N 36°48' W 076°17'0 0.0
2017-Oct-04 08:01N 36°48' W 076°17'0 0.0
2017-Oct-04 07:30N 36°48' W 076°17'0 0.0
2017-Oct-04 07:00N 36°48' W 076°17'0 0.0
2017-Oct-04 06:30N 36°48' W 076°17'0 0.0
2017-Oct-04 06:00N 36°48' W 076°17'0 0.0
2017-Oct-04 05:30N 36°48' W 076°17'0 0.0
2017-Oct-04 05:00N 36°48' W 076°17'0 0.0
2017-Oct-04 04:30N 36°48' W 076°17'0 0.0
2017-Oct-04 04:01N 36°48' W 076°17'0 0.0
2017-Oct-04 03:30N 36°48' W 076°17'0 0.0
2017-Oct-04 03:00N 36°48' W 076°17'0 0.0
2017-Oct-04 02:31N 36°48' W 076°17'0 0.0
2017-Oct-04 02:00N 36°48' W 076°17'0 0.0
2017-Oct-04 01:30N 36°48' W 076°17'0 0.0
2017-Oct-04 01:00N 36°48' W 076°17'0 0.0
2017-Oct-04 00:30N 36°48' W 076°17'0 0.0
2017-Oct-04 00:01N 36°48' W 076°17'0 0.0
2017-Oct-03 23:30N 36°48' W 076°17'0 0.0
2017-Oct-03 23:00N 36°48' W 076°17'0 0.0
2017-Oct-03 22:31N 36°48' W 076°17'0 0.0
2017-Oct-03 22:00N 36°48' W 076°17'0 0.0
2017-Oct-03 21:30N 36°48' W 076°17'0 0.0
2017-Oct-03 21:00N 36°48' W 076°17'0 0.0
2017-Oct-03 20:30N 36°48' W 076°17'0 0.0
2017-Oct-02 22:39N 36°48' W 076°17'0 0.0
2017-Oct-02 22:30N 36°48' W 076°17'0 0.0
2017-Oct-02 22:00N 36°48' W 076°17'0 0.0
2017-Oct-02 21:26N 36°48' W 076°17'0 0.0
2017-Oct-02 21:00N 36°48' W 076°17'0 0.0
2017-Oct-02 20:31N 36°48' W 076°17'0 0.0
2017-Oct-02 20:01N 36°48' W 076°17'0 0.0
2017-Oct-02 19:30N 36°48' W 076°17'0 0.0
2017-Oct-02 19:00N 36°48' W 076°17'0 0.0
2017-Oct-02 18:30N 36°48' W 076°17'0 0.0
2017-Oct-02 18:00N 36°48' W 076°17'0 0.0
2017-Oct-02 17:30N 36°48' W 076°17'0 0.0
2017-Oct-02 17:00N 36°48' W 076°17'0 0.0
2017-Oct-02 16:30N 36°48' W 076°17'0 0.0
2017-Oct-02 16:00N 36°48' W 076°17'0 0.0
2017-Oct-02 15:30N 36°48' W 076°17'0 0.0
2017-Oct-02 15:00N 36°48' W 076°17'0 0.0
2017-Oct-02 14:30N 36°48' W 076°17'0 0.0
2017-Oct-02 14:00N 36°48' W 076°17'0 0.0
2017-Oct-02 13:30N 36°48' W 076°17'0 0.0
2017-Oct-02 13:00N 36°48' W 076°17'0 0.0
2017-Oct-02 12:30N 36°48' W 076°17'0 0.0
2017-Oct-02 12:00N 36°48' W 076°17'0 0.0
2017-Oct-02 11:30N 36°48' W 076°17'0 0.0
2017-Oct-02 11:00N 36°48' W 076°17'0 0.0
2017-Oct-02 10:30N 36°48' W 076°17'0 0.0
2017-Oct-02 10:00N 36°48' W 076°17'0 0.0
2017-Oct-02 09:30N 36°48' W 076°17'0 0.0
2017-Oct-02 09:00N 36°48' W 076°17'0 0.0
2017-Oct-02 08:30N 36°48' W 076°17'0 0.0
2017-Oct-02 08:00N 36°48' W 076°17'0 0.0
2017-Oct-02 07:30N 36°48' W 076°17'0 0.0
2017-Oct-02 07:00N 36°48' W 076°17'0 0.0
2017-Oct-02 06:30N 36°48' W 076°17'0 0.0
2017-Oct-02 06:00N 36°48' W 076°17'0 0.0
2017-Oct-02 05:30N 36°48' W 076°17'0 0.0
2017-Oct-02 05:00N 36°48' W 076°17'0 0.0
2017-Oct-02 04:30N 36°48' W 076°17'0 0.0
2017-Oct-02 04:00N 36°48' W 076°17'0 0.0
2017-Oct-02 03:30N 36°48' W 076°17'0 0.0
2017-Oct-02 03:00N 36°48' W 076°17'0 0.0
2017-Oct-02 02:30N 36°48' W 076°17'0 0.0
2017-Oct-02 02:00N 36°48' W 076°17'0 0.0
2017-Oct-02 01:30N 36°48' W 076°17'0 0.0
2017-Oct-02 01:00N 36°48' W 076°17'0 0.0
2017-Oct-02 00:30N 36°48' W 076°17'0 0.0
2017-Oct-02 00:00N 36°48' W 076°17'0 0.0
2017-Oct-01 23:30N 36°48' W 076°17'0 0.0
2017-Oct-01 23:00N 36°48' W 076°17'0 0.0
2017-Oct-01 22:30N 36°48' W 076°17'0 0.0
2017-Oct-01 22:00N 36°48' W 076°17'0 0.0
2017-Oct-01 21:30N 36°48' W 076°17'0 0.0
2017-Oct-01 21:00N 36°48' W 076°17'0 0.0
2017-Oct-01 20:30N 36°48' W 076°17'0 0.0
2017-Oct-01 20:00N 36°48' W 076°17'0 0.0
2017-Oct-01 19:30N 36°48' W 076°17'0 0.0
2017-Oct-01 19:00N 36°48' W 076°17'0 0.0
2017-Oct-01 18:30N 36°48' W 076°17'0 0.0
2017-Oct-01 18:00N 36°48' W 076°17'0 0.0
2017-Oct-01 17:30N 36°48' W 076°17'0 0.0
2017-Oct-01 17:00N 36°48' W 076°17'0 0.0
2017-Oct-01 16:30N 36°48' W 076°17'0 0.0
2017-Oct-01 16:00N 36°48' W 076°17'0 0.0
2017-Oct-01 15:30N 36°48' W 076°17'0 0.0
2017-Oct-01 15:00N 36°48' W 076°17'0 0.0
2017-Oct-01 14:30N 36°48' W 076°17'0 0.0
2017-Oct-01 14:00N 36°48' W 076°17'0 0.0
2017-Oct-01 13:30N 36°48' W 076°17'1 2.7
2017-Oct-01 13:00N 36°49' W 076°17'3 5.1
2017-Oct-01 12:30N 36°51' W 076°19'  

Dump ship's entire track history